Bright Ocean — HOGQ — position and weather

sailwx.info

Track history (hours):
 
Tides and Currents Weather Stations Pressure Air Temp Water Temp Dewpoint Dewpoint Depression Visibility Wind Speed Wind Dir Waves Ship Positions

Bright Ocean

Last reported at 2016-May-14 11:33 UTC. Time now 2016-May-29 00:08 UTC.
Position S 26°40' E 153°16'.
Warning: this ship's position is 14 days out of date.

Length 178 m; draft 10 m.

Type: Cargo ship. MMSI: 373816000.

Date/timePositionNaut miles runAvg speedWind from/ knotsBaromVisibWave heightAir tempDewpointWater temp
2016-May-14 11:33S 26°40' E 153°16'8 8.4
2016-May-14 10:33S 26°47' E 153°11'1010.0
2016-May-14 09:33S 26°57' E 153°13'1212.1
2016-May-14 08:33S 27°07' E 153°20'1111.0
2016-May-14 07:33S 27°17' E 153°15'10 9.6
2016-May-14 06:33S 27°25' E 153°09'4 0.3
2016-May-13 18:14S 27°27' E 153°06'0 0.0
2016-May-13 17:32S 27°27' E 153°06'0 0.0
2016-May-13 16:32S 27°27' E 153°06'0 0.0
2016-May-13 15:32S 27°27' E 153°06'0 0.0
2016-May-13 14:32S 27°27' E 153°06'0 0.0
2016-May-13 13:32S 27°27' E 153°06'0 0.0
2016-May-13 12:32S 27°27' E 153°06'0 0.0
2016-May-13 11:32S 27°27' E 153°06'0 0.0
2016-May-13 10:32S 27°27' E 153°06'0 0.0
2016-May-13 09:32S 27°27' E 153°06'0 0.0
2016-May-13 08:29S 27°27' E 153°06'0 0.0
2016-May-13 07:32S 27°27' E 153°06'0 0.0
2016-May-13 06:32S 27°27' E 153°06'0 0.0
2016-May-13 05:32S 27°27' E 153°06'0 0.0
2016-May-13 04:32S 27°27' E 153°06'0 0.0
2016-May-13 03:32S 27°27' E 153°06'0 0.0
2016-May-13 02:32S 27°27' E 153°06'0 0.0
2016-May-13 01:32S 27°27' E 153°06'0 0.0
2016-May-13 00:32S 27°27' E 153°06'0 0.0
2016-May-12 23:32S 27°27' E 153°06'1 1.1
2016-May-12 22:34S 27°27' E 153°04'5 5.2
2016-May-12 21:33S 27°24' E 153°09'8 8.2
2016-May-12 20:34S 27°17' E 153°15'8 8.4
2016-May-12 19:34S 27°11' E 153°21'9 9.0
2016-May-12 18:34S 27°03' E 153°16'1212.4
2016-May-12 17:34S 26°52' E 153°09'1010.0
2016-May-12 16:34S 26°42' E 153°12'5 4.6
2016-May-12 15:31S 26°43' E 153°17'10 9.3
2016-May-12 14:27S 26°50' E 153°25'1412.4
2016-May-12 13:19S 26°59' E 153°37'1013.2
2016-May-12 12:33S 27°08' E 153°40'1212.1
2016-May-12 11:34S 27°20' E 153°44'2411.7
2016-May-12 09:32S 27°43' E 153°52'6 5.9
2016-May-12 08:33S 27°48' E 153°52'5 4.6
2016-May-12 07:33S 27°52' E 153°55'28810.3
2016-May-11 03:34S 32°33' E 152°43'1010.3
2016-May-11 02:34S 32°43' E 152°39'1211.6
2016-May-11 01:34S 32°53' E 152°33'1212.4
2016-May-11 00:34S 33°05' E 152°27'1211.7
2016-May-10 23:33S 33°16' E 152°22'20512.1
2016-May-10 06:34S 36°26' E 150°48'1211.9
2016-May-10 05:34S 36°37' E 150°42'1110.7
2016-May-10 04:33S 36°47' E 150°37'1010.3
2016-May-10 03:34S 36°56' E 150°33'1111.0
2016-May-10 02:34S 37°06' E 150°27'1211.7
2016-May-10 01:34S 37°17' E 150°22'1212.0
2016-May-10 00:33S 37°28' E 150°16'1212.2
2016-May-09 23:34S 37°40' E 150°10'1212.2
2016-May-09 22:34S 37°47' E 149°58'1312.7
2016-May-09 21:34S 37°55' E 149°45'1313.0
2016-May-09 20:34S 38°02' E 149°32'1312.7
2016-May-09 19:33S 38°10' E 149°18'1212.2
2016-May-09 18:34S 38°17' E 149°06'1111.5
2016-May-09 17:34S 38°24' E 148°55'1111.3
2016-May-09 16:34S 38°31' E 148°43'6611.0
2016-May-09 10:34S 38°60' E 147°27'1312.7
2016-May-09 09:33S 39°04' E 147°11'1313.5
2016-May-09 08:34S 39°09' E 146°55'1413.8
2016-May-09 07:33S 39°15' E 146°39'1313.6
2016-May-09 06:33S 39°17' E 146°22'1313.5
2016-May-09 05:33S 39°17' E 146°04'1513.2
2016-May-09 04:27S 39°16' E 145°45'15612.1
2016-May-08 15:33S 38°49' E 142°27'1211.9
2016-May-08 14:33S 38°46' E 142°13'1211.6
2016-May-08 13:33S 38°43' E 141°58'1211.5
2016-May-08 12:31S 38°39' E 141°44'  
Track history (hours):
 
Tides and Currents Weather Stations Pressure Air Temp Water Temp Dewpoint Dewpoint Depression Visibility Wind Speed Wind Dir Waves Ship Positions

Bright Ocean

Last reported at 2016-May-14 11:33 UTC. Time now 2016-May-29 00:08 UTC.
Position S 26°40' E 153°16'.
Warning: this ship's position is 14 days out of date.

Length 178 m; draft 10 m.

Type: Cargo ship. MMSI: 373816000.

Date/timePositionNaut miles runAvg speedWind from/ knotsBaromVisibWave heightAir tempDewpointWater temp
2016-May-14 11:33S 26°40' E 153°16'8 8.4
2016-May-14 10:33S 26°47' E 153°11'1010.0
2016-May-14 09:33S 26°57' E 153°13'1212.1
2016-May-14 08:33S 27°07' E 153°20'1111.0
2016-May-14 07:33S 27°17' E 153°15'10 9.6
2016-May-14 06:33S 27°25' E 153°09'4 0.3
2016-May-13 18:14S 27°27' E 153°06'0 0.0
2016-May-13 17:32S 27°27' E 153°06'0 0.0
2016-May-13 16:32S 27°27' E 153°06'0 0.0
2016-May-13 15:32S 27°27' E 153°06'0 0.0
2016-May-13 14:32S 27°27' E 153°06'0 0.0
2016-May-13 13:32S 27°27' E 153°06'0 0.0
2016-May-13 12:32S 27°27' E 153°06'0 0.0
2016-May-13 11:32S 27°27' E 153°06'0 0.0
2016-May-13 10:32S 27°27' E 153°06'0 0.0
2016-May-13 09:32S 27°27' E 153°06'0 0.0
2016-May-13 08:29S 27°27' E 153°06'0 0.0
2016-May-13 07:32S 27°27' E 153°06'0 0.0
2016-May-13 06:32S 27°27' E 153°06'0 0.0
2016-May-13 05:32S 27°27' E 153°06'0 0.0
2016-May-13 04:32S 27°27' E 153°06'0 0.0
2016-May-13 03:32S 27°27' E 153°06'0 0.0
2016-May-13 02:32S 27°27' E 153°06'0 0.0
2016-May-13 01:32S 27°27' E 153°06'0 0.0
2016-May-13 00:32S 27°27' E 153°06'0 0.0
2016-May-12 23:32S 27°27' E 153°06'1 1.1
2016-May-12 22:34S 27°27' E 153°04'5 5.2
2016-May-12 21:33S 27°24' E 153°09'8 8.2
2016-May-12 20:34S 27°17' E 153°15'8 8.4
2016-May-12 19:34S 27°11' E 153°21'9 9.0
2016-May-12 18:34S 27°03' E 153°16'1212.4
2016-May-12 17:34S 26°52' E 153°09'1010.0
2016-May-12 16:34S 26°42' E 153°12'5 4.6
2016-May-12 15:31S 26°43' E 153°17'10 9.3
2016-May-12 14:27S 26°50' E 153°25'1412.4
2016-May-12 13:19S 26°59' E 153°37'1013.2
2016-May-12 12:33S 27°08' E 153°40'1212.1
2016-May-12 11:34S 27°20' E 153°44'2411.7
2016-May-12 09:32S 27°43' E 153°52'6 5.9
2016-May-12 08:33S 27°48' E 153°52'5 4.6
2016-May-12 07:33S 27°52' E 153°55'28810.3
2016-May-11 03:34S 32°33' E 152°43'1010.3
2016-May-11 02:34S 32°43' E 152°39'1211.6
2016-May-11 01:34S 32°53' E 152°33'1212.4
2016-May-11 00:34S 33°05' E 152°27'1211.7
2016-May-10 23:33S 33°16' E 152°22'20512.1
2016-May-10 06:34S 36°26' E 150°48'1211.9
2016-May-10 05:34S 36°37' E 150°42'1110.7
2016-May-10 04:33S 36°47' E 150°37'1010.3
2016-May-10 03:34S 36°56' E 150°33'1111.0
2016-May-10 02:34S 37°06' E 150°27'1211.7
2016-May-10 01:34S 37°17' E 150°22'1212.0
2016-May-10 00:33S 37°28' E 150°16'1212.2
2016-May-09 23:34S 37°40' E 150°10'1212.2
2016-May-09 22:34S 37°47' E 149°58'1312.7
2016-May-09 21:34S 37°55' E 149°45'1313.0
2016-May-09 20:34S 38°02' E 149°32'1312.7
2016-May-09 19:33S 38°10' E 149°18'1212.2
2016-May-09 18:34S 38°17' E 149°06'1111.5
2016-May-09 17:34S 38°24' E 148°55'1111.3
2016-May-09 16:34S 38°31' E 148°43'6611.0
2016-May-09 10:34S 38°60' E 147°27'1312.7
2016-May-09 09:33S 39°04' E 147°11'1313.5
2016-May-09 08:34S 39°09' E 146°55'1413.8
2016-May-09 07:33S 39°15' E 146°39'1313.6
2016-May-09 06:33S 39°17' E 146°22'1313.5
2016-May-09 05:33S 39°17' E 146°04'1513.2
2016-May-09 04:27S 39°16' E 145°45'15612.1
2016-May-08 15:33S 38°49' E 142°27'1211.9
2016-May-08 14:33S 38°46' E 142°13'1211.6
2016-May-08 13:33S 38°43' E 141°58'1211.5
2016-May-08 12:31S 38°39' E 141°44'  

Dump ship's entire track history